createdAt,value
2022-10-06T00:00:20.391Z,94.5
2022-10-06T00:05:20.353Z,94.5
2022-10-06T00:10:20.345Z,94.4
2022-10-06T00:15:20.382Z,94.5
2022-10-06T00:20:20.356Z,94.5
2022-10-06T00:25:20.361Z,94.6
2022-10-06T00:30:20.575Z,94.5
2022-10-06T00:35:20.364Z,94.6
2022-10-06T00:40:20.371Z,94.5
2022-10-06T00:45:20.390Z,94.3
2022-10-06T00:50:20.369Z,94.2
2022-10-06T00:55:20.377Z,94.2
2022-10-06T01:00:20.442Z,94.2
2022-10-06T01:05:20.384Z,94.2
2022-10-06T01:10:20.389Z,94.1
2022-10-06T01:15:20.406Z,94.2
2022-10-06T01:20:20.387Z,94.3
2022-10-06T01:25:20.401Z,94.4
2022-10-06T01:30:20.464Z,94.2
2022-10-06T01:35:20.398Z,94.1
2022-10-06T01:40:20.403Z,94.0
2022-10-06T01:45:20.424Z,93.9
2022-10-06T01:50:20.405Z,93.7
2022-10-06T01:55:20.409Z,93.5
2022-10-06T02:00:20.422Z,93.5
2022-10-06T02:05:20.417Z,93.4
2022-10-06T02:10:20.422Z,93.4
2022-10-06T02:15:20.447Z,93.3
2022-10-06T02:20:20.424Z,93.4
2022-10-06T02:25:20.432Z,93.3
2022-10-06T02:30:20.444Z,93.3
2022-10-06T02:35:20.433Z,93.4
2022-10-06T02:40:20.449Z,93.4
2022-10-06T02:45:20.486Z,93.4
2022-10-06T02:50:20.447Z,93.5
2022-10-06T02:55:20.446Z,93.5
2022-10-06T03:00:20.515Z,93.6
2022-10-06T03:05:20.457Z,93.5
2022-10-06T03:10:20.459Z,93.5
2022-10-06T03:15:20.482Z,93.4
2022-10-06T03:20:20.464Z,93.4
2022-10-06T03:25:20.466Z,93.4
2022-10-06T03:30:20.475Z,93.3
2022-10-06T03:35:20.471Z,93.2
2022-10-06T03:40:20.470Z,93.2
2022-10-06T03:45:20.500Z,93.3
2022-10-06T03:50:20.478Z,93.2
2022-10-06T03:55:20.478Z,93.1
2022-10-06T04:00:20.558Z,93.0
2022-10-06T04:05:20.501Z,93.0
2022-10-06T04:10:20.487Z,93.0
2022-10-06T04:15:20.575Z,93.1
2022-10-06T04:20:20.492Z,93.0
2022-10-06T04:25:20.497Z,93.2
2022-10-06T04:30:20.569Z,93.0
2022-10-06T04:35:20.500Z,92.8
2022-10-06T04:40:20.504Z,92.7
2022-10-06T04:45:20.537Z,92.7
2022-10-06T04:50:20.517Z,92.6
2022-10-06T04:55:20.521Z,92.6
2022-10-06T05:00:20.586Z,92.6
2022-10-06T05:05:20.520Z,92.6
2022-10-06T05:10:20.523Z,92.6
2022-10-06T05:15:20.554Z,92.5
2022-10-06T05:20:20.528Z,92.5
2022-10-06T05:25:20.534Z,92.6
2022-10-06T05:30:20.549Z,92.5
2022-10-06T05:35:20.541Z,92.6
2022-10-06T05:40:20.544Z,92.5
2022-10-06T05:45:20.560Z,92.5
2022-10-06T05:50:20.784Z,92.5
2022-10-06T05:55:20.549Z,92.7
2022-10-06T06:00:20.570Z,92.8
2022-10-06T06:05:20.561Z,92.7
2022-10-06T06:10:20.555Z,92.7
2022-10-06T06:15:20.580Z,92.7
2022-10-06T06:20:20.567Z,92.7
2022-10-06T06:25:20.566Z,92.7
2022-10-06T06:30:20.583Z,92.7
2022-10-06T06:35:20.571Z,92.8
2022-10-06T06:40:20.572Z,92.8
2022-10-06T06:45:21.054Z,92.9
2022-10-06T06:50:20.580Z,92.9
2022-10-06T06:55:20.590Z,92.9
2022-10-06T07:00:20.832Z,92.8
2022-10-06T07:05:20.593Z,92.7
2022-10-06T07:10:20.594Z,92.8
2022-10-06T07:15:21.071Z,92.6
2022-10-06T07:20:20.603Z,92.4
2022-10-06T07:25:25.340Z,92.1
2022-10-06T07:30:20.852Z,92.1
2022-10-06T07:35:20.604Z,91.9
2022-10-06T07:40:20.610Z,91.7
2022-10-06T07:45:21.102Z,91.2
2022-10-06T07:50:20.621Z,91.2
2022-10-06T07:55:20.622Z,91.1
2022-10-06T08:00:20.920Z,90.7
2022-10-06T08:05:20.625Z,90.5
2022-10-06T08:10:20.628Z,90.2
2022-10-06T08:15:20.635Z,90.1
2022-10-06T08:20:21.693Z,89.4
2022-10-06T08:25:20.657Z,88.9
2022-10-06T08:30:21.010Z,88.7
2022-10-06T08:35:20.650Z,88.2
2022-10-06T08:40:20.742Z,87.5
2022-10-06T08:45:20.649Z,87.6
2022-10-06T08:50:20.724Z,87.5
2022-10-06T08:55:21.136Z,87.6
2022-10-06T09:00:22.159Z,87.0
2022-10-06T09:05:20.659Z,85.9
2022-10-06T09:10:20.665Z,84.7
2022-10-06T09:15:20.663Z,84.7
2022-10-06T09:20:20.731Z,83.8
2022-10-06T09:25:20.672Z,83.3
2022-10-06T09:30:21.394Z,83.1
2022-10-06T09:35:20.675Z,81.4
2022-10-06T09:40:20.680Z,81.8
2022-10-06T09:45:20.689Z,81.1
2022-10-06T09:50:20.687Z,81.3
2022-10-06T09:55:20.689Z,78.9
2022-10-06T10:00:20.936Z,79.6
2022-10-06T10:05:20.964Z,77.4
2022-10-06T10:10:20.704Z,77.3
2022-10-06T10:15:20.708Z,76.8
2022-10-06T10:20:20.704Z,76.3
2022-10-06T10:25:20.708Z,75.8
2022-10-06T10:30:20.953Z,74.9
2022-10-06T10:35:21.215Z,73.0
2022-10-06T10:40:20.724Z,73.6
2022-10-06T10:45:20.726Z,74.7
2022-10-06T10:50:20.724Z,75.6
2022-10-06T10:55:20.727Z,73.9
2022-10-06T11:00:20.979Z,73.4
2022-10-06T11:05:23.093Z,73.4
2022-10-06T11:10:21.217Z,71.6
2022-10-06T11:15:20.732Z,71.0
2022-10-06T11:20:20.742Z,71.4
2022-10-06T11:25:20.744Z,71.8
2022-10-06T11:30:20.982Z,71.5
2022-10-06T11:35:20.743Z,68.4
2022-10-06T11:40:20.747Z,71.8
2022-10-06T11:45:21.242Z,69.6
2022-10-06T11:50:20.755Z,66.7
2022-10-06T11:55:20.762Z,66.9
2022-10-06T12:00:21.013Z,67.1
2022-10-06T12:05:54.882Z,67.2
2022-10-06T12:10:20.769Z,63.8
2022-10-06T12:20:21.261Z,63.6
2022-10-06T12:25:20.783Z,63.6
2022-10-06T12:30:21.118Z,64.4
2022-10-06T12:35:20.791Z,62.4
2022-10-06T12:40:20.851Z,65.0
2022-10-06T12:45:20.792Z,63.0
2022-10-06T12:50:20.799Z,61.5
2022-10-06T12:55:21.276Z,60.0
2022-10-06T13:00:20.877Z,60.6
2022-10-06T13:05:21.137Z,62.2
2022-10-06T13:10:20.806Z,61.2
2022-10-06T13:15:21.023Z,62.6
2022-10-06T13:20:20.815Z,61.6
2022-10-06T13:25:20.821Z,62.0
2022-10-06T13:30:21.138Z,62.6
2022-10-06T13:35:20.820Z,62.4
2022-10-06T13:40:21.694Z,62.9
2022-10-06T13:45:20.830Z,62.3
2022-10-06T13:50:20.830Z,60.4
2022-10-06T13:55:20.836Z,60.8
2022-10-06T14:00:20.837Z,62.9
2022-10-06T14:05:21.090Z,61.8
2022-10-06T14:10:21.206Z,61.3
2022-10-06T14:15:20.849Z,62.2
2022-10-06T14:20:20.850Z,62.8
2022-10-06T14:25:20.858Z,60.9
2022-10-06T14:30:20.867Z,60.4
2022-10-06T14:35:21.347Z,59.9
2022-10-06T14:40:20.861Z,59.0
2022-10-06T14:45:21.104Z,60.9
2022-10-06T14:50:20.875Z,60.6
2022-10-06T14:55:20.873Z,62.0
2022-10-06T15:00:20.874Z,62.2
2022-10-06T15:05:20.881Z,64.0
2022-10-06T15:10:21.123Z,64.9
2022-10-06T15:15:20.889Z,65.3
2022-10-06T15:20:21.131Z,64.7
2022-10-06T15:25:20.885Z,64.1
2022-10-06T15:30:20.901Z,63.9
2022-10-06T15:35:20.898Z,64.7
2022-10-06T15:40:20.899Z,65.8
2022-10-06T15:45:21.393Z,66.6
2022-10-06T15:50:20.913Z,66.2
2022-10-06T15:55:21.158Z,66.2
2022-10-06T16:00:20.920Z,65.5
2022-10-06T16:05:20.918Z,65.7
2022-10-06T16:10:20.919Z,66.3
2022-10-06T16:15:20.925Z,67.6
2022-10-06T16:20:21.175Z,66.7
2022-10-06T16:25:20.922Z,67.3
2022-10-06T16:30:21.182Z,67.8
2022-10-06T16:35:20.931Z,68.2
2022-10-06T16:40:20.941Z,67.6
2022-10-06T16:45:20.939Z,68.1
2022-10-06T16:50:20.943Z,68.3
2022-10-06T16:53:17.007Z,69.9
2022-10-06T16:55:20.939Z,69.9
2022-10-06T17:00:20.944Z,69.8
2022-10-06T17:05:21.728Z,70.3
2022-10-06T17:10:21.507Z,71.0
2022-10-06T17:15:20.960Z,71.5
2022-10-06T17:20:20.963Z,72.1
2022-10-06T17:25:21.984Z,72.7
2022-10-06T17:30:20.971Z,73.3
2022-10-06T17:35:20.973Z,73.2
2022-10-06T17:40:21.214Z,73.4
2022-10-06T17:45:21.407Z,73.1
2022-10-06T17:50:20.978Z,73.0
2022-10-06T17:55:20.984Z,73.5
2022-10-06T18:00:21.467Z,73.8
2022-10-06T18:05:20.987Z,74.9
2022-10-06T18:10:20.985Z,75.9
2022-10-06T18:15:21.242Z,76.9
2022-10-06T18:20:20.995Z,77.5
2022-10-06T18:25:25.907Z,78.1
2022-10-06T18:30:22.245Z,79.0
2022-10-06T18:40:21.025Z,80.2
2022-10-06T18:45:21.015Z,81.0
2022-10-06T18:50:21.283Z,81.2
2022-10-06T18:55:21.017Z,81.7
2022-10-06T19:00:21.028Z,82.4
2022-10-06T19:05:21.026Z,82.6
2022-10-06T19:10:21.519Z,82.8
2022-10-06T19:15:21.551Z,83.0
2022-10-06T19:20:21.030Z,83.4
2022-10-06T19:25:21.296Z,84.2
2022-10-06T19:30:21.044Z,84.3
2022-10-06T19:35:21.039Z,84.3
2022-10-06T19:40:21.038Z,84.9
2022-10-06T19:45:21.524Z,84.9
2022-10-06T19:50:21.051Z,84.7
2022-10-06T19:55:21.050Z,84.8
2022-10-06T20:00:21.334Z,85.0
2022-10-06T20:05:21.058Z,85.0
2022-10-06T20:10:21.063Z,84.7
2022-10-06T20:15:21.064Z,84.7
2022-10-06T20:20:21.598Z,84.7
2022-10-06T20:25:21.072Z,84.7
2022-10-06T20:30:21.073Z,84.8
2022-10-06T20:33:34.564Z,85.3
2022-10-06T20:37:36.640Z,85.3
2022-10-06T20:42:36.631Z,85.5
2022-10-06T20:47:36.634Z,85.7
2022-10-06T20:52:37.149Z,85.3
2022-10-06T20:57:36.640Z,85.6
2022-10-06T21:02:36.712Z,85.8
2022-10-06T21:07:37.459Z,85.8
2022-10-06T21:12:36.673Z,86.1
2022-10-06T21:17:36.677Z,85.9
2022-10-06T21:22:36.683Z,85.9
2022-10-06T21:27:37.724Z,85.9
2022-10-06T21:32:36.686Z,86.2
2022-10-06T21:37:36.691Z,86.2
2022-10-06T21:42:36.939Z,86.2
2022-10-06T21:47:36.702Z,85.8
2022-10-06T21:52:36.703Z,86.0
2022-10-06T21:57:36.702Z,86.6
2022-10-06T22:02:37.736Z,86.4
2022-10-06T22:07:36.715Z,86.8
2022-10-06T22:12:37.472Z,87.4
2022-10-06T22:17:36.721Z,87.7
2022-10-06T22:22:36.715Z,87.8
2022-10-06T22:27:36.718Z,88.1
2022-10-06T22:32:36.722Z,87.9
2022-10-06T22:37:36.975Z,88.3
2022-10-06T22:42:36.727Z,88.3
2022-10-06T22:47:37.454Z,88.6
2022-10-06T22:52:36.729Z,88.6
2022-10-06T22:57:36.732Z,88.9
2022-10-06T23:02:36.738Z,89.2
2022-10-06T23:07:37.220Z,88.8
2022-10-06T23:12:36.783Z,88.5
2022-10-06T23:17:36.742Z,89.0
2022-10-06T23:22:37.492Z,89.2
2022-10-06T23:27:36.753Z,89.4
2022-10-06T23:32:36.775Z,89.3
2022-10-06T23:37:36.757Z,88.9
2022-10-06T23:42:37.752Z,88.5
2022-10-06T23:47:36.761Z,88.8
2022-10-06T23:52:36.763Z,89.1
2022-10-06T23:57:37.006Z,89.2
